sensor_id;sensor_type;location;lat;lon;timestamp;P1;durP1;ratioP1;P2;durP2;ratioP2
69534;SDS011;56754;51.568;5.048;2023-04-01T00:01:31;5.50;;;1.30;;
69534;SDS011;56754;51.568;5.048;2023-04-01T00:03:57;5.10;;;1.50;;
69534;SDS011;56754;51.568;5.048;2023-04-01T00:06:22;4.33;;;1.40;;
69534;SDS011;56754;51.568;5.048;2023-04-01T00:08:48;3.70;;;1.30;;
69534;SDS011;56754;51.568;5.048;2023-04-01T00:11:14;3.93;;;1.30;;
69534;SDS011;56754;51.568;5.048;2023-04-01T00:13:40;3.67;;;1.33;;
69534;SDS011;56754;51.568;5.048;2023-04-01T00:16:05;5.05;;;1.45;;
69534;SDS011;56754;51.568;5.048;2023-04-01T00:18:31;3.80;;;1.20;;
69534;SDS011;56754;51.568;5.048;2023-04-01T00:20:56;4.78;;;1.23;;
69534;SDS011;56754;51.568;5.048;2023-04-01T00:23:22;5.13;;;1.37;;
69534;SDS011;56754;51.568;5.048;2023-04-01T00:25:47;3.73;;;1.40;;
69534;SDS011;56754;51.568;5.048;2023-04-01T00:28:13;4.27;;;1.20;;
69534;SDS011;56754;51.568;5.048;2023-04-01T00:30:40;3.28;;;0.90;;
69534;SDS011;56754;51.568;5.048;2023-04-01T00:33:05;3.97;;;1.30;;
69534;SDS011;56754;51.568;5.048;2023-04-01T00:35:31;4.43;;;1.42;;
69534;SDS011;56754;51.568;5.048;2023-04-01T00:37:56;3.50;;;1.47;;
69534;SDS011;56754;51.568;5.048;2023-04-01T00:40:29;3.03;;;1.17;;
69534;SDS011;56754;51.568;5.048;2023-04-01T00:43:03;4.10;;;1.60;;
69534;SDS011;56754;51.568;5.048;2023-04-01T00:45:35;4.75;;;1.40;;
69534;SDS011;56754;51.568;5.048;2023-04-01T00:48:06;3.80;;;1.30;;
69534;SDS011;56754;51.568;5.048;2023-04-01T00:50:39;4.70;;;1.55;;
69534;SDS011;56754;51.568;5.048;2023-04-01T00:53:07;4.00;;;1.40;;
69534;SDS011;56754;51.568;5.048;2023-04-01T00:55:34;4.30;;;1.60;;
69534;SDS011;56754;51.568;5.048;2023-04-01T00:58:04;3.75;;;1.50;;
69534;SDS011;56754;51.568;5.048;2023-04-01T01:00:32;3.67;;;1.40;;
69534;SDS011;56754;51.568;5.048;2023-04-01T01:02:59;3.75;;;1.20;;
69534;SDS011;56754;51.568;5.048;2023-04-01T01:05:29;4.13;;;1.30;;
69534;SDS011;56754;51.568;5.048;2023-04-01T01:08:08;3.92;;;1.20;;
69534;SDS011;56754;51.568;5.048;2023-04-01T01:10:44;3.40;;;1.08;;
69534;SDS011;56754;51.568;5.048;2023-04-01T01:16:12;3.25;;;1.10;;
69534;SDS011;56754;51.568;5.048;2023-04-01T01:27:30;2.35;;;0.60;;
69534;SDS011;56754;51.568;5.048;2023-04-01T01:30:31;1.75;;;0.55;;
69534;SDS011;56754;51.568;5.048;2023-04-01T01:35:52;2.60;;;0.73;;
69534;SDS011;56754;51.568;5.048;2023-04-01T01:38:24;2.28;;;0.60;;
69534;SDS011;56754;51.568;5.048;2023-04-01T01:40:53;3.33;;;0.88;;
69534;SDS011;56754;51.568;5.048;2023-04-01T01:43:25;2.33;;;0.60;;
69534;SDS011;56754;51.568;5.048;2023-04-01T01:45:55;2.90;;;0.70;;
69534;SDS011;56754;51.568;5.048;2023-04-01T01:48:26;1.73;;;0.50;;
69534;SDS011;56754;51.568;5.048;2023-04-01T01:50:54;2.22;;;0.50;;
69534;SDS011;56754;51.568;5.048;2023-04-01T01:53:19;2.87;;;0.73;;
69534;SDS011;56754;51.568;5.048;2023-04-01T01:55:45;3.67;;;0.70;;
69534;SDS011;56754;51.568;5.048;2023-04-01T02:01:01;2.10;;;0.50;;
69534;SDS011;56754;51.568;5.048;2023-04-01T02:03:31;3.45;;;0.70;;
69534;SDS011;56754;51.568;5.048;2023-04-01T02:06:00;4.03;;;0.55;;
69534;SDS011;56754;51.568;5.048;2023-04-01T02:08:29;3.47;;;0.60;;
69534;SDS011;56754;51.568;5.048;2023-04-01T02:11:06;4.18;;;0.60;;
69534;SDS011;56754;51.568;5.048;2023-04-01T02:13:44;2.75;;;0.60;;
69534;SDS011;56754;51.568;5.048;2023-04-01T02:16:16;3.33;;;0.70;;
69534;SDS011;56754;51.568;5.048;2023-04-01T02:19:03;5.25;;;0.95;;
69534;SDS011;56754;51.568;5.048;2023-04-01T02:21:31;4.13;;;0.73;;
69534;SDS011;56754;51.568;5.048;2023-04-01T02:23:57;2.70;;;0.60;;
69534;SDS011;56754;51.568;5.048;2023-04-01T02:26:25;2.65;;;0.65;;
69534;SDS011;56754;51.568;5.048;2023-04-01T02:28:51;4.10;;;0.70;;
69534;SDS011;56754;51.568;5.048;2023-04-01T02:31:18;2.72;;;0.65;;
69534;SDS011;56754;51.568;5.048;2023-04-01T02:33:44;2.08;;;0.70;;
69534;SDS011;56754;51.568;5.048;2023-04-01T02:36:11;2.60;;;0.73;;
69534;SDS011;56754;51.568;5.048;2023-04-01T02:38:37;3.07;;;0.50;;
69534;SDS011;56754;51.568;5.048;2023-04-01T02:41:03;2.15;;;0.50;;
69534;SDS011;56754;51.568;5.048;2023-04-01T02:43:29;3.10;;;0.60;;
69534;SDS011;56754;51.568;5.048;2023-04-01T02:45:54;2.45;;;0.60;;
69534;SDS011;56754;51.568;5.048;2023-04-01T02:48:19;2.77;;;0.70;;
69534;SDS011;56754;51.568;5.048;2023-04-01T02:50:45;3.13;;;0.97;;
69534;SDS011;56754;51.568;5.048;2023-04-01T02:53:11;3.97;;;0.70;;
69534;SDS011;56754;51.568;5.048;2023-04-01T02:55:36;3.43;;;0.90;;
69534;SDS011;56754;51.568;5.048;2023-04-01T02:58:01;4.70;;;1.20;;
69534;SDS011;56754;51.568;5.048;2023-04-01T03:00:27;3.43;;;1.10;;
69534;SDS011;56754;51.568;5.048;2023-04-01T03:02:53;2.90;;;0.80;;
69534;SDS011;56754;51.568;5.048;2023-04-01T03:05:18;2.92;;;0.65;;
69534;SDS011;56754;51.568;5.048;2023-04-01T03:07:44;2.90;;;0.60;;
69534;SDS011;56754;51.568;5.048;2023-04-01T03:10:09;3.27;;;0.80;;
69534;SDS011;56754;51.568;5.048;2023-04-01T03:12:35;2.80;;;0.70;;
69534;SDS011;56754;51.568;5.048;2023-04-01T03:15:00;3.87;;;1.07;;
69534;SDS011;56754;51.568;5.048;2023-04-01T03:17:25;2.38;;;0.63;;
69534;SDS011;56754;51.568;5.048;2023-04-01T03:19:51;2.80;;;0.93;;
69534;SDS011;56754;51.568;5.048;2023-04-01T03:22:16;3.50;;;0.90;;
69534;SDS011;56754;51.568;5.048;2023-04-01T03:24:42;2.87;;;0.83;;
69534;SDS011;56754;51.568;5.048;2023-04-01T03:27:07;3.27;;;1.10;;
69534;SDS011;56754;51.568;5.048;2023-04-01T03:29:32;3.20;;;0.80;;
69534;SDS011;56754;51.568;5.048;2023-04-01T03:31:57;2.38;;;0.90;;
69534;SDS011;56754;51.568;5.048;2023-04-01T03:34:23;3.90;;;0.97;;
69534;SDS011;56754;51.568;5.048;2023-04-01T03:36:49;2.70;;;0.90;;
69534;SDS011;56754;51.568;5.048;2023-04-01T03:39:14;4.30;;;1.25;;
69534;SDS011;56754;51.568;5.048;2023-04-01T03:41:40;4.97;;;1.30;;
69534;SDS011;56754;51.568;5.048;2023-04-01T03:44:05;4.50;;;1.20;;
69534;SDS011;56754;51.568;5.048;2023-04-01T03:46:30;4.23;;;1.40;;
69534;SDS011;56754;51.568;5.048;2023-04-01T03:48:55;4.80;;;1.60;;
69534;SDS011;56754;51.568;5.048;2023-04-01T03:51:21;5.00;;;1.77;;
69534;SDS011;56754;51.568;5.048;2023-04-01T03:53:46;3.67;;;1.60;;
69534;SDS011;56754;51.568;5.048;2023-04-01T03:56:11;6.37;;;1.50;;
69534;SDS011;56754;51.568;5.048;2023-04-01T03:58:37;4.87;;;1.87;;
69534;SDS011;56754;51.568;5.048;2023-04-01T04:01:02;4.30;;;1.63;;
69534;SDS011;56754;51.568;5.048;2023-04-01T04:03:28;4.07;;;1.40;;
69534;SDS011;56754;51.568;5.048;2023-04-01T04:05:53;5.30;;;1.37;;
69534;SDS011;56754;51.568;5.048;2023-04-01T04:08:18;4.53;;;1.30;;
69534;SDS011;56754;51.568;5.048;2023-04-01T04:10:44;3.77;;;1.23;;
69534;SDS011;56754;51.568;5.048;2023-04-01T04:13:09;4.13;;;1.30;;
69534;SDS011;56754;51.568;5.048;2023-04-01T04:15:35;4.47;;;1.40;;
69534;SDS011;56754;51.568;5.048;2023-04-01T04:18:00;3.40;;;1.10;;
69534;SDS011;56754;51.568;5.048;2023-04-01T04:20:25;3.63;;;1.00;;
69534;SDS011;56754;51.568;5.048;2023-04-01T04:22:51;3.77;;;1.33;;
69534;SDS011;56754;51.568;5.048;2023-04-01T04:25:16;4.40;;;1.10;;
69534;SDS011;56754;51.568;5.048;2023-04-01T04:27:41;4.37;;;1.30;;
69534;SDS011;56754;51.568;5.048;2023-04-01T04:30:08;2.95;;;1.08;;
69534;SDS011;56754;51.568;5.048;2023-04-01T04:32:34;4.10;;;1.30;;
69534;SDS011;56754;51.568;5.048;2023-04-01T04:34:59;3.60;;;1.20;;
69534;SDS011;56754;51.568;5.048;2023-04-01T04:37:25;4.03;;;1.17;;
69534;SDS011;56754;51.568;5.048;2023-04-01T04:39:50;2.43;;;0.77;;
69534;SDS011;56754;51.568;5.048;2023-04-01T04:42:15;3.40;;;1.00;;
69534;SDS011;56754;51.568;5.048;2023-04-01T04:44:41;3.90;;;1.10;;
69534;SDS011;56754;51.568;5.048;2023-04-01T04:47:06;3.17;;;1.10;;
69534;SDS011;56754;51.568;5.048;2023-04-01T04:49:31;3.47;;;1.10;;
69534;SDS011;56754;51.568;5.048;2023-04-01T04:51:56;2.53;;;0.90;;
69534;SDS011;56754;51.568;5.048;2023-04-01T04:54:22;3.73;;;1.30;;
69534;SDS011;56754;51.568;5.048;2023-04-01T04:56:47;4.03;;;1.00;;
69534;SDS011;56754;51.568;5.048;2023-04-01T04:59:12;3.77;;;1.10;;
69534;SDS011;56754;51.568;5.048;2023-04-01T05:01:38;1.90;;;0.70;;
69534;SDS011;56754;51.568;5.048;2023-04-01T05:04:03;3.40;;;0.90;;
69534;SDS011;56754;51.568;5.048;2023-04-01T05:06:28;3.17;;;1.03;;
69534;SDS011;56754;51.568;5.048;2023-04-01T05:08:54;3.40;;;1.00;;
69534;SDS011;56754;51.568;5.048;2023-04-01T05:11:19;4.30;;;1.20;;
69534;SDS011;56754;51.568;5.048;2023-04-01T05:13:44;2.67;;;0.70;;
69534;SDS011;56754;51.568;5.048;2023-04-01T05:16:11;3.07;;;1.13;;
69534;SDS011;56754;51.568;5.048;2023-04-01T05:18:38;3.42;;;1.00;;
69534;SDS011;56754;51.568;5.048;2023-04-01T05:21:08;2.90;;;0.90;;
69534;SDS011;56754;51.568;5.048;2023-04-01T05:23:34;2.55;;;0.93;;
69534;SDS011;56754;51.568;5.048;2023-04-01T05:26:03;3.30;;;1.20;;
69534;SDS011;56754;51.568;5.048;2023-04-01T05:28:29;3.88;;;1.42;;
69534;SDS011;56754;51.568;5.048;2023-04-01T05:30:55;4.10;;;1.30;;
69534;SDS011;56754;51.568;5.048;2023-04-01T05:33:24;3.78;;;1.30;;
69534;SDS011;56754;51.568;5.048;2023-04-01T05:35:49;3.80;;;1.10;;
69534;SDS011;56754;51.568;5.048;2023-04-01T05:38:14;5.00;;;1.37;;
69534;SDS011;56754;51.568;5.048;2023-04-01T05:40:39;3.63;;;1.13;;
69534;SDS011;56754;51.568;5.048;2023-04-01T05:43:05;3.42;;;1.40;;
69534;SDS011;56754;51.568;5.048;2023-04-01T05:45:30;3.53;;;1.17;;
69534;SDS011;56754;51.568;5.048;2023-04-01T05:47:55;3.90;;;1.10;;
69534;SDS011;56754;51.568;5.048;2023-04-01T05:50:21;5.43;;;1.23;;
69534;SDS011;56754;51.568;5.048;2023-04-01T05:52:46;4.00;;;1.47;;
69534;SDS011;56754;51.568;5.048;2023-04-01T05:55:11;4.50;;;1.40;;
69534;SDS011;56754;51.568;5.048;2023-04-01T05:57:37;4.10;;;1.80;;
69534;SDS011;56754;51.568;5.048;2023-04-01T06:00:02;4.25;;;1.40;;
69534;SDS011;56754;51.568;5.048;2023-04-01T06:02:29;4.53;;;1.60;;
69534;SDS011;56754;51.568;5.048;2023-04-01T06:04:56;5.50;;;1.60;;
69534;SDS011;56754;51.568;5.048;2023-04-01T06:07:36;3.60;;;1.50;;
69534;SDS011;56754;51.568;5.048;2023-04-01T06:10:01;4.67;;;1.80;;
69534;SDS011;56754;51.568;5.048;2023-04-01T06:15:20;4.43;;;1.70;;
69534;SDS011;56754;51.568;5.048;2023-04-01T06:23:46;6.00;;;2.83;;
69534;SDS011;56754;51.568;5.048;2023-04-01T06:46:27;6.50;;;3.33;;
69534;SDS011;56754;51.568;5.048;2023-04-01T06:51:41;4.70;;;1.90;;
69534;SDS011;56754;51.568;5.048;2023-04-01T06:54:21;4.80;;;2.03;;
69534;SDS011;56754;51.568;5.048;2023-04-01T06:56:56;5.63;;;2.23;;
69534;SDS011;56754;51.568;5.048;2023-04-01T06:59:26;5.68;;;2.83;;
69534;SDS011;56754;51.568;5.048;2023-04-01T07:02:05;6.45;;;2.90;;
69534;SDS011;56754;51.568;5.048;2023-04-01T07:04:44;8.38;;;3.40;;
69534;SDS011;56754;51.568;5.048;2023-04-01T07:13:09;8.77;;;3.60;;
69534;SDS011;56754;51.568;5.048;2023-04-01T07:15:41;7.63;;;3.10;;
69534;SDS011;56754;51.568;5.048;2023-04-01T07:18:17;6.35;;;3.03;;
69534;SDS011;56754;51.568;5.048;2023-04-01T07:20:46;7.10;;;3.60;;
69534;SDS011;56754;51.568;5.048;2023-04-01T07:23:33;6.67;;;3.00;;
69534;SDS011;56754;51.568;5.048;2023-04-01T07:29:00;8.23;;;3.80;;
69534;SDS011;56754;51.568;5.048;2023-04-01T07:36:39;7.80;;;3.38;;
69534;SDS011;56754;51.568;5.048;2023-04-01T07:39:21;7.68;;;3.90;;
69534;SDS011;56754;51.568;5.048;2023-04-01T07:58:08;10.00;;;4.73;;
69534;SDS011;56754;51.568;5.048;2023-04-01T08:03:37;7.63;;;3.45;;
69534;SDS011;56754;51.568;5.048;2023-04-01T08:14:46;7.93;;;3.60;;
69534;SDS011;56754;51.568;5.048;2023-04-01T08:23:15;7.47;;;3.28;;
69534;SDS011;56754;51.568;5.048;2023-04-01T08:26:08;7.47;;;3.20;;
69534;SDS011;56754;51.568;5.048;2023-04-01T08:28:43;7.72;;;3.30;;
69534;SDS011;56754;51.568;5.048;2023-04-01T08:33:56;10.38;;;4.25;;
69534;SDS011;56754;51.568;5.048;2023-04-01T08:36:29;8.13;;;4.03;;
69534;SDS011;56754;51.568;5.048;2023-04-01T08:38:59;9.63;;;3.90;;
69534;SDS011;56754;51.568;5.048;2023-04-01T08:47:07;8.20;;;3.95;;
69534;SDS011;56754;51.568;5.048;2023-04-01T09:14:35;7.55;;;3.67;;
69534;SDS011;56754;51.568;5.048;2023-04-01T09:41:35;6.38;;;2.70;;
69534;SDS011;56754;51.568;5.048;2023-04-01T09:52:24;6.30;;;2.87;;
69534;SDS011;56754;51.568;5.048;2023-04-01T09:55:06;7.57;;;2.95;;
69534;SDS011;56754;51.568;5.048;2023-04-01T10:01:00;5.55;;;2.53;;
69534;SDS011;56754;51.568;5.048;2023-04-01T10:03:49;8.05;;;3.47;;
69534;SDS011;56754;51.568;5.048;2023-04-01T10:15:11;5.65;;;3.10;;
69534;SDS011;56754;51.568;5.048;2023-04-01T10:26:43;7.72;;;3.47;;
69534;SDS011;56754;51.568;5.048;2023-04-01T10:29:58;8.43;;;4.10;;
69534;SDS011;56754;51.568;5.048;2023-04-01T10:32:38;7.60;;;3.65;;
69534;SDS011;56754;51.568;5.048;2023-04-01T10:40:51;8.35;;;3.45;;
69534;SDS011;56754;51.568;5.048;2023-04-01T10:56:40;7.88;;;3.15;;
69534;SDS011;56754;51.568;5.048;2023-04-01T11:29:52;8.90;;;3.60;;
69534;SDS011;56754;51.568;5.048;2023-04-01T11:32:41;7.20;;;3.70;;
69534;SDS011;56754;51.568;5.048;2023-04-01T11:35:32;6.70;;;3.22;;
69534;SDS011;56754;51.568;5.048;2023-04-01T11:46:46;5.73;;;2.60;;
69534;SDS011;56754;51.568;5.048;2023-04-01T11:49:33;7.15;;;3.03;;
69534;SDS011;56754;51.568;5.048;2023-04-01T11:55:06;6.20;;;2.80;;
69534;SDS011;56754;51.568;5.048;2023-04-01T11:58:12;6.90;;;2.90;;
69534;SDS011;56754;51.568;5.048;2023-04-01T12:12:42;5.07;;;2.70;;
69534;SDS011;56754;51.568;5.048;2023-04-01T12:17:40;7.13;;;3.30;;
69534;SDS011;56754;51.568;5.048;2023-04-01T12:28:50;6.80;;;3.03;;
69534;SDS011;56754;51.568;5.048;2023-04-01T12:31:35;5.87;;;2.47;;
69534;SDS011;56754;51.568;5.048;2023-04-01T12:36:59;7.50;;;2.60;;
69534;SDS011;56754;51.568;5.048;2023-04-01T12:55:44;5.90;;;2.15;;
69534;SDS011;56754;51.568;5.048;2023-04-01T12:58:15;8.93;;;2.40;;
69534;SDS011;56754;51.568;5.048;2023-04-01T13:00:58;8.10;;;2.58;;
69534;SDS011;56754;51.568;5.048;2023-04-01T13:09:24;5.65;;;2.33;;
69534;SDS011;56754;51.568;5.048;2023-04-01T13:30:51;5.80;;;2.00;;
69534;SDS011;56754;51.568;5.048;2023-04-01T13:36:20;6.23;;;1.90;;
69534;SDS011;56754;51.568;5.048;2023-04-01T13:39:27;4.63;;;1.90;;
69534;SDS011;56754;51.568;5.048;2023-04-01T13:44:51;6.17;;;2.17;;
69534;SDS011;56754;51.568;5.048;2023-04-01T13:47:23;4.55;;;1.70;;
69534;SDS011;56754;51.568;5.048;2023-04-01T13:50:05;4.80;;;1.90;;
69534;SDS011;56754;51.568;5.048;2023-04-01T14:00:55;6.53;;;2.08;;
69534;SDS011;56754;51.568;5.048;2023-04-01T14:08:40;6.68;;;2.00;;
69534;SDS011;56754;51.568;5.048;2023-04-01T14:11:18;5.78;;;2.40;;
69534;SDS011;56754;51.568;5.048;2023-04-01T14:22:20;6.28;;;2.35;;
69534;SDS011;56754;51.568;5.048;2023-04-01T14:30:52;4.77;;;2.00;;
69534;SDS011;56754;51.568;5.048;2023-04-01T14:45:40;5.77;;;2.27;;
69534;SDS011;56754;51.568;5.048;2023-04-01T14:50:57;5.32;;;2.90;;
69534;SDS011;56754;51.568;5.048;2023-04-01T14:53:36;7.10;;;3.35;;
69534;SDS011;56754;51.568;5.048;2023-04-01T14:56:07;6.45;;;3.00;;
69534;SDS011;56754;51.568;5.048;2023-04-01T14:58:41;6.10;;;3.00;;
69534;SDS011;56754;51.568;5.048;2023-04-01T15:01:33;5.88;;;2.60;;
69534;SDS011;56754;51.568;5.048;2023-04-01T15:12:12;6.47;;;2.42;;
69534;SDS011;56754;51.568;5.048;2023-04-01T15:17:51;5.65;;;2.63;;
69534;SDS011;56754;51.568;5.048;2023-04-01T15:21:30;5.40;;;2.40;;
69534;SDS011;56754;51.568;5.048;2023-04-01T15:26:18;5.38;;;2.40;;
69534;SDS011;56754;51.568;5.048;2023-04-01T15:32:01;6.18;;;2.40;;
69534;SDS011;56754;51.568;5.048;2023-04-01T15:34:52;6.77;;;2.50;;
69534;SDS011;56754;51.568;5.048;2023-04-01T15:37:35;5.75;;;2.58;;
69534;SDS011;56754;51.568;5.048;2023-04-01T15:40:15;5.97;;;2.75;;
69534;SDS011;56754;51.568;5.048;2023-04-01T15:43:00;5.82;;;2.85;;
69534;SDS011;56754;51.568;5.048;2023-04-01T15:51:25;6.07;;;2.63;;
69534;SDS011;56754;51.568;5.048;2023-04-01T15:56:45;6.63;;;3.10;;
69534;SDS011;56754;51.568;5.048;2023-04-01T16:16:28;8.70;;;3.43;;
69534;SDS011;56754;51.568;5.048;2023-04-01T16:24:40;8.10;;;3.78;;
69534;SDS011;56754;51.568;5.048;2023-04-01T16:43:19;7.25;;;3.25;;
69534;SDS011;56754;51.568;5.048;2023-04-01T16:45:46;7.23;;;3.23;;
69534;SDS011;56754;51.568;5.048;2023-04-01T16:48:28;7.15;;;2.97;;
69534;SDS011;56754;51.568;5.048;2023-04-01T16:51:11;6.97;;;3.10;;
69534;SDS011;56754;51.568;5.048;2023-04-01T16:53:41;6.28;;;2.67;;
69534;SDS011;56754;51.568;5.048;2023-04-01T16:56:11;5.38;;;2.45;;
69534;SDS011;56754;51.568;5.048;2023-04-01T16:58:56;7.27;;;2.80;;
69534;SDS011;56754;51.568;5.048;2023-04-01T17:01:29;5.68;;;2.78;;
69534;SDS011;56754;51.568;5.048;2023-04-01T17:07:10;6.05;;;2.38;;
69534;SDS011;56754;51.568;5.048;2023-04-01T17:18:23;4.70;;;2.10;;
69534;SDS011;56754;51.568;5.048;2023-04-01T17:21:00;5.00;;;2.50;;
69534;SDS011;56754;51.568;5.048;2023-04-01T17:23:36;5.10;;;2.20;;
69534;SDS011;56754;51.568;5.048;2023-04-01T17:26:17;6.33;;;2.50;;
69534;SDS011;56754;51.568;5.048;2023-04-01T17:32:10;5.93;;;2.67;;
69534;SDS011;56754;51.568;5.048;2023-04-01T17:45:56;4.57;;;2.10;;
69534;SDS011;56754;51.568;5.048;2023-04-01T17:51:29;4.10;;;1.70;;
69534;SDS011;56754;51.568;5.048;2023-04-01T17:54:27;5.40;;;2.10;;
69534;SDS011;56754;51.568;5.048;2023-04-01T17:59:52;7.93;;;3.08;;
69534;SDS011;56754;51.568;5.048;2023-04-01T18:05:30;12.70;;;6.57;;
69534;SDS011;56754;51.568;5.048;2023-04-01T18:11:05;13.15;;;8.60;;
69534;SDS011;56754;51.568;5.048;2023-04-01T18:19:09;14.27;;;10.40;;
69534;SDS011;56754;51.568;5.048;2023-04-01T18:21:48;14.00;;;8.70;;
69534;SDS011;56754;51.568;5.048;2023-04-01T18:24:19;10.77;;;7.82;;
69534;SDS011;56754;51.568;5.048;2023-04-01T18:27:01;11.00;;;7.88;;
69534;SDS011;56754;51.568;5.048;2023-04-01T18:35:21;15.90;;;10.87;;
69534;SDS011;56754;51.568;5.048;2023-04-01T18:38:13;14.98;;;10.80;;
69534;SDS011;56754;51.568;5.048;2023-04-01T18:40:45;16.67;;;11.15;;
69534;SDS011;56754;51.568;5.048;2023-04-01T18:43:22;18.83;;;10.95;;
69534;SDS011;56754;51.568;5.048;2023-04-01T18:45:58;15.77;;;10.52;;
69534;SDS011;56754;51.568;5.048;2023-04-01T18:51:26;13.00;;;9.65;;
69534;SDS011;56754;51.568;5.048;2023-04-01T18:54:19;13.25;;;9.10;;
69534;SDS011;56754;51.568;5.048;2023-04-01T18:56:51;12.82;;;8.75;;
69534;SDS011;56754;51.568;5.048;2023-04-01T18:59:50;13.65;;;9.02;;
69534;SDS011;56754;51.568;5.048;2023-04-01T19:02:37;12.03;;;7.97;;
69534;SDS011;56754;51.568;5.048;2023-04-01T19:05:53;11.73;;;8.10;;
69534;SDS011;56754;51.568;5.048;2023-04-01T19:08:24;12.65;;;8.10;;
69534;SDS011;56754;51.568;5.048;2023-04-01T19:19:11;10.68;;;6.90;;
69534;SDS011;56754;51.568;5.048;2023-04-01T19:21:42;10.02;;;7.07;;
69534;SDS011;56754;51.568;5.048;2023-04-01T19:24:16;11.45;;;6.30;;
69534;SDS011;56754;51.568;5.048;2023-04-01T19:32:14;9.38;;;5.97;;
69534;SDS011;56754;51.568;5.048;2023-04-01T19:43:00;8.70;;;5.43;;
69534;SDS011;56754;51.568;5.048;2023-04-01T19:45:41;8.63;;;5.20;;
69534;SDS011;56754;51.568;5.048;2023-04-01T19:51:06;7.80;;;4.75;;
69534;SDS011;56754;51.568;5.048;2023-04-01T20:04:55;7.05;;;3.80;;
69534;SDS011;56754;51.568;5.048;2023-04-01T20:07:25;6.95;;;4.30;;
69534;SDS011;56754;51.568;5.048;2023-04-01T20:10:12;6.15;;;3.90;;
69534;SDS011;56754;51.568;5.048;2023-04-01T20:12:49;7.35;;;3.60;;
69534;SDS011;56754;51.568;5.048;2023-04-01T20:18:19;7.03;;;3.40;;
69534;SDS011;56754;51.568;5.048;2023-04-01T20:20:53;6.07;;;3.60;;
69534;SDS011;56754;51.568;5.048;2023-04-01T20:26:08;5.80;;;3.25;;
69534;SDS011;56754;51.568;5.048;2023-04-01T20:28:43;6.20;;;2.93;;
69534;SDS011;56754;51.568;5.048;2023-04-01T20:36:06;6.37;;;2.80;;
69534;SDS011;56754;51.568;5.048;2023-04-01T20:41:38;5.20;;;2.78;;
69534;SDS011;56754;51.568;5.048;2023-04-01T20:46:47;5.50;;;2.90;;
69534;SDS011;56754;51.568;5.048;2023-04-01T21:00:11;5.13;;;2.40;;
69534;SDS011;56754;51.568;5.048;2023-04-01T21:11:33;4.53;;;2.40;;
69534;SDS011;56754;51.568;5.048;2023-04-01T21:14:10;5.80;;;2.42;;
69534;SDS011;56754;51.568;5.048;2023-04-01T21:16:52;4.45;;;2.10;;
69534;SDS011;56754;51.568;5.048;2023-04-01T21:30:40;4.95;;;2.10;;
69534;SDS011;56754;51.568;5.048;2023-04-01T21:53:29;4.10;;;1.88;;
69534;SDS011;56754;51.568;5.048;2023-04-01T21:58:49;3.83;;;1.90;;
69534;SDS011;56754;51.568;5.048;2023-04-01T22:09:13;3.85;;;1.90;;
69534;SDS011;56754;51.568;5.048;2023-04-01T22:12:17;4.63;;;2.47;;
69534;SDS011;56754;51.568;5.048;2023-04-01T22:28:16;4.88;;;2.53;;
69534;SDS011;56754;51.568;5.048;2023-04-01T22:31:01;4.77;;;2.60;;
69534;SDS011;56754;51.568;5.048;2023-04-01T22:44:31;5.07;;;2.67;;
69534;SDS011;56754;51.568;5.048;2023-04-01T22:47:12;5.00;;;2.90;;
69534;SDS011;56754;51.568;5.048;2023-04-01T22:52:41;5.63;;;3.20;;
69534;SDS011;56754;51.568;5.048;2023-04-01T22:57:47;5.40;;;3.10;;
69534;SDS011;56754;51.568;5.048;2023-04-01T23:00:45;4.90;;;2.75;;
69534;SDS011;56754;51.568;5.048;2023-04-01T23:03:18;5.03;;;3.00;;
69534;SDS011;56754;51.568;5.048;2023-04-01T23:05:55;5.55;;;3.10;;
69534;SDS011;56754;51.568;5.048;2023-04-01T23:11:16;4.70;;;2.87;;
69534;SDS011;56754;51.568;5.048;2023-04-01T23:13:46;5.30;;;2.97;;
69534;SDS011;56754;51.568;5.048;2023-04-01T23:16:15;4.88;;;2.90;;
69534;SDS011;56754;51.568;5.048;2023-04-01T23:21:37;4.65;;;2.80;;
69534;SDS011;56754;51.568;5.048;2023-04-01T23:24:12;5.17;;;2.73;;
69534;SDS011;56754;51.568;5.048;2023-04-01T23:26:55;4.88;;;2.85;;
69534;SDS011;56754;51.568;5.048;2023-04-01T23:29:26;4.97;;;2.97;;
69534;SDS011;56754;51.568;5.048;2023-04-01T23:31:59;4.97;;;2.83;;
69534;SDS011;56754;51.568;5.048;2023-04-01T23:34:26;4.78;;;2.63;;
69534;SDS011;56754;51.568;5.048;2023-04-01T23:37:02;5.37;;;2.73;;
69534;SDS011;56754;51.568;5.048;2023-04-01T23:39:31;5.07;;;2.40;;
69534;SDS011;56754;51.568;5.048;2023-04-01T23:44:31;5.60;;;2.90;;
69534;SDS011;56754;51.568;5.048;2023-04-01T23:46:58;4.80;;;2.60;;
69534;SDS011;56754;51.568;5.048;2023-04-01T23:49:37;5.43;;;2.70;;
69534;SDS011;56754;51.568;5.048;2023-04-01T23:52:11;4.88;;;2.70;;
69534;SDS011;56754;51.568;5.048;2023-04-01T23:55:08;4.47;;;2.55;;
69534;SDS011;56754;51.568;5.048;2023-04-01T23:57:43;5.20;;;2.83;;
